DuBois Regional Airport Dubois US
ICAO: KDUJ
IATA: DUJ
Category: Medium
Scheduled Services: Yes

Elevation: 1817 ft
TransAlt. 18000 ft.

Airport Communications:
ASOS:119.025
CLEVELAND CNTR:126.72
CTAF:123
ALTOONA RDO:122.2
UNICOM:123

KDUJ Zoom In..

Runways:

(A) RW 07 length 5503 ft width 100 ft
---- / hdg 72

(B) RW 25 length 5503 ft width 100 ft
ILS 109.90 / hdg 252

Location; KDUJ
Day. 20 / Time. 09.53 Zulu
* Altimeter: 30.21
* Temperature: -04° c. -24.8°f.
* Wind from: 250° Speed 06 kn.
Dewpoint: -06° c.
Visibility: 10 Statute Miles.
Clouds: Clear (automated report).

KDUJ 200953Z AUTO 25006KT 10SM CLR M04/M06 A3021 RMK AO2 SLP252 T10441061 TSNO


Wind From 250°
Speed 06 kn.

  YouTube Music Video
 
jpsmedia.com for Web Design  worldairports.se 2018   terms of use